Terminal Aerodrome Forecast
Issued by NWS Lake Charles, LA

Home | Current Version | Previous Version | Text Only | Print | Product List | Glossary On
Versions: 1 2 3 4 5 6 7 8 9 10 11 12 13 14 15 16 17 18
000
FTUS44 KLCH 010500
TAFLFT
TAF
KLFT 010520Z 0106/0206 13003KT P6SM SCT025 SCT250
     FM011400 15007KT P6SM VCSH BKN025
     FM011800 17008KT P6SM VCTS BKN035CB PROB30 0119/0123 2SM TSRA
      BKN025CB
     FM020100 17004KT P6SM BKN250=

USA.gov is the U.S. government's official web portal to all federal, state and local government web resources and services.